sensor_id;sensor_type;location;lat;lon;timestamp;P1;durP1;ratioP1;P2;durP2;ratioP2
51746;SDS011;37825;40.088;18.302;2022-08-19T00:00:28;15.25;;;7.40;;
51746;SDS011;37825;40.088;18.302;2022-08-19T00:02:56;14.15;;;7.00;;
51746;SDS011;37825;40.088;18.302;2022-08-19T00:05:24;17.40;;;7.55;;
51746;SDS011;37825;40.088;18.302;2022-08-19T00:07:53;16.88;;;6.32;;
51746;SDS011;37825;40.088;18.302;2022-08-19T00:10:22;14.70;;;6.88;;
51746;SDS011;37825;40.088;18.302;2022-08-19T00:12:51;19.67;;;7.75;;
51746;SDS011;37825;40.088;18.302;2022-08-19T00:15:20;15.20;;;8.55;;
51746;SDS011;37825;40.088;18.302;2022-08-19T00:17:49;19.15;;;9.30;;
51746;SDS011;37825;40.088;18.302;2022-08-19T00:20:18;22.98;;;10.02;;
51746;SDS011;37825;40.088;18.302;2022-08-19T00:22:47;18.65;;;9.63;;
51746;SDS011;37825;40.088;18.302;2022-08-19T00:25:15;20.50;;;9.35;;
51746;SDS011;37825;40.088;18.302;2022-08-19T00:27:45;22.23;;;9.18;;
51746;SDS011;37825;40.088;18.302;2022-08-19T00:30:14;13.10;;;8.82;;
51746;SDS011;37825;40.088;18.302;2022-08-19T00:32:42;21.63;;;8.23;;
51746;SDS011;37825;40.088;18.302;2022-08-19T00:35:11;17.92;;;8.60;;
51746;SDS011;37825;40.088;18.302;2022-08-19T00:37:39;14.95;;;7.18;;
51746;SDS011;37825;40.088;18.302;2022-08-19T00:40:11;17.52;;;7.47;;
51746;SDS011;37825;40.088;18.302;2022-08-19T00:42:39;15.00;;;6.20;;
51746;SDS011;37825;40.088;18.302;2022-08-19T00:45:09;11.88;;;5.28;;
51746;SDS011;37825;40.088;18.302;2022-08-19T00:47:37;14.63;;;6.90;;
51746;SDS011;37825;40.088;18.302;2022-08-19T00:50:06;17.80;;;6.97;;
51746;SDS011;37825;40.088;18.302;2022-08-19T00:52:38;20.15;;;7.00;;
51746;SDS011;37825;40.088;18.302;2022-08-19T00:55:13;12.48;;;6.65;;
51746;SDS011;37825;40.088;18.302;2022-08-19T00:57:44;17.95;;;7.50;;
51746;SDS011;37825;40.088;18.302;2022-08-19T01:00:15;12.45;;;5.85;;
51746;SDS011;37825;40.088;18.302;2022-08-19T01:02:44;19.10;;;8.00;;
51746;SDS011;37825;40.088;18.302;2022-08-19T01:05:14;14.30;;;7.10;;
51746;SDS011;37825;40.088;18.302;2022-08-19T01:07:43;22.63;;;8.13;;
51746;SDS011;37825;40.088;18.302;2022-08-19T01:10:12;18.00;;;7.40;;
51746;SDS011;37825;40.088;18.302;2022-08-19T01:12:41;10.43;;;6.25;;
51746;SDS011;37825;40.088;18.302;2022-08-19T01:15:11;16.35;;;6.28;;
51746;SDS011;37825;40.088;18.302;2022-08-19T01:17:40;16.92;;;7.70;;
51746;SDS011;37825;40.088;18.302;2022-08-19T01:20:14;14.23;;;5.93;;
51746;SDS011;37825;40.088;18.302;2022-08-19T01:25:10;23.55;;;7.70;;
51746;SDS011;37825;40.088;18.302;2022-08-19T01:27:41;16.83;;;5.88;;
51746;SDS011;37825;40.088;18.302;2022-08-19T01:30:14;16.73;;;5.30;;
51746;SDS011;37825;40.088;18.302;2022-08-19T01:32:43;15.23;;;6.35;;
51746;SDS011;37825;40.088;18.302;2022-08-19T01:35:14;13.07;;;5.68;;
51746;SDS011;37825;40.088;18.302;2022-08-19T01:37:46;15.63;;;5.53;;
51746;SDS011;37825;40.088;18.302;2022-08-19T01:40:15;17.42;;;5.65;;
51746;SDS011;37825;40.088;18.302;2022-08-19T01:42:44;13.40;;;5.80;;
51746;SDS011;37825;40.088;18.302;2022-08-19T01:45:13;14.88;;;6.80;;
51746;SDS011;37825;40.088;18.302;2022-08-19T01:47:41;13.32;;;6.30;;
51746;SDS011;37825;40.088;18.302;2022-08-19T01:50:10;12.95;;;7.15;;
51746;SDS011;37825;40.088;18.302;2022-08-19T01:52:39;10.85;;;5.95;;
51746;SDS011;37825;40.088;18.302;2022-08-19T01:55:11;15.40;;;6.80;;
51746;SDS011;37825;40.088;18.302;2022-08-19T01:57:41;16.85;;;6.63;;
51746;SDS011;37825;40.088;18.302;2022-08-19T02:00:11;14.57;;;5.82;;
51746;SDS011;37825;40.088;18.302;2022-08-19T02:02:43;19.15;;;7.10;;
51746;SDS011;37825;40.088;18.302;2022-08-19T02:05:12;14.40;;;5.50;;
51746;SDS011;37825;40.088;18.302;2022-08-19T02:07:40;17.25;;;5.53;;
51746;SDS011;37825;40.088;18.302;2022-08-19T02:10:12;17.45;;;5.07;;
51746;SDS011;37825;40.088;18.302;2022-08-19T02:12:41;13.45;;;4.88;;
51746;SDS011;37825;40.088;18.302;2022-08-19T02:15:09;14.55;;;5.20;;
51746;SDS011;37825;40.088;18.302;2022-08-19T02:17:38;18.17;;;5.40;;
51746;SDS011;37825;40.088;18.302;2022-08-19T02:20:07;17.80;;;4.65;;
51746;SDS011;37825;40.088;18.302;2022-08-19T02:22:36;16.08;;;5.68;;
51746;SDS011;37825;40.088;18.302;2022-08-19T02:25:05;17.58;;;4.30;;
51746;SDS011;37825;40.088;18.302;2022-08-19T02:27:33;15.82;;;5.25;;
51746;SDS011;37825;40.088;18.302;2022-08-19T02:30:02;11.05;;;4.72;;
51746;SDS011;37825;40.088;18.302;2022-08-19T02:32:31;9.38;;;4.75;;
51746;SDS011;37825;40.088;18.302;2022-08-19T02:35:00;15.38;;;5.85;;
51746;SDS011;37825;40.088;18.302;2022-08-19T02:37:29;18.13;;;5.78;;
51746;SDS011;37825;40.088;18.302;2022-08-19T02:40:15;21.13;;;6.50;;
51746;SDS011;37825;40.088;18.302;2022-08-19T02:42:45;15.13;;;6.03;;
51746;SDS011;37825;40.088;18.302;2022-08-19T02:45:13;12.02;;;6.63;;
51746;SDS011;37825;40.088;18.302;2022-08-19T02:47:42;17.67;;;6.47;;
51746;SDS011;37825;40.088;18.302;2022-08-19T02:50:11;17.02;;;7.05;;
51746;SDS011;37825;40.088;18.302;2022-08-19T02:52:39;21.02;;;6.47;;
51746;SDS011;37825;40.088;18.302;2022-08-19T02:55:08;22.50;;;6.35;;
51746;SDS011;37825;40.088;18.302;2022-08-19T02:57:36;8.95;;;5.63;;
51746;SDS011;37825;40.088;18.302;2022-08-19T03:00:06;17.85;;;7.07;;
51746;SDS011;37825;40.088;18.302;2022-08-19T03:02:35;23.70;;;7.25;;
51746;SDS011;37825;40.088;18.302;2022-08-19T03:05:04;17.90;;;7.32;;
51746;SDS011;37825;40.088;18.302;2022-08-19T03:07:33;13.18;;;6.47;;
51746;SDS011;37825;40.088;18.302;2022-08-19T03:10:02;20.88;;;6.57;;
51746;SDS011;37825;40.088;18.302;2022-08-19T03:12:31;20.98;;;6.28;;
51746;SDS011;37825;40.088;18.302;2022-08-19T03:14:59;17.38;;;6.10;;
51746;SDS011;37825;40.088;18.302;2022-08-19T03:17:27;24.23;;;7.10;;
51746;SDS011;37825;40.088;18.302;2022-08-19T03:19:56;14.90;;;6.30;;
51746;SDS011;37825;40.088;18.302;2022-08-19T03:22:24;12.60;;;6.57;;
51746;SDS011;37825;40.088;18.302;2022-08-19T03:24:53;10.98;;;5.97;;
51746;SDS011;37825;40.088;18.302;2022-08-19T03:27:21;19.48;;;6.90;;
51746;SDS011;37825;40.088;18.302;2022-08-19T03:29:50;12.30;;;6.90;;
51746;SDS011;37825;40.088;18.302;2022-08-19T03:32:19;22.42;;;6.85;;
51746;SDS011;37825;40.088;18.302;2022-08-19T03:34:49;16.30;;;6.35;;
51746;SDS011;37825;40.088;18.302;2022-08-19T03:37:17;13.27;;;5.93;;
51746;SDS011;37825;40.088;18.302;2022-08-19T03:39:46;18.45;;;10.60;;
51746;SDS011;37825;40.088;18.302;2022-08-19T03:42:14;13.55;;;7.47;;
51746;SDS011;37825;40.088;18.302;2022-08-19T03:44:44;12.60;;;7.88;;
51746;SDS011;37825;40.088;18.302;2022-08-19T03:47:12;16.13;;;8.18;;
51746;SDS011;37825;40.088;18.302;2022-08-19T03:49:44;23.63;;;7.30;;
51746;SDS011;37825;40.088;18.302;2022-08-19T03:52:12;11.43;;;6.20;;
51746;SDS011;37825;40.088;18.302;2022-08-19T03:54:42;22.25;;;7.15;;
51746;SDS011;37825;40.088;18.302;2022-08-19T03:57:10;17.15;;;5.93;;
51746;SDS011;37825;40.088;18.302;2022-08-19T03:59:38;20.33;;;7.03;;
51746;SDS011;37825;40.088;18.302;2022-08-19T04:02:08;14.63;;;6.60;;
51746;SDS011;37825;40.088;18.302;2022-08-19T04:04:38;12.45;;;6.57;;
51746;SDS011;37825;40.088;18.302;2022-08-19T04:07:06;18.35;;;7.00;;
51746;SDS011;37825;40.088;18.302;2022-08-19T04:09:35;15.40;;;7.05;;
51746;SDS011;37825;40.088;18.302;2022-08-19T04:12:03;20.63;;;6.50;;
51746;SDS011;37825;40.088;18.302;2022-08-19T04:14:33;15.70;;;6.55;;
51746;SDS011;37825;40.088;18.302;2022-08-19T04:17:02;16.88;;;5.80;;
51746;SDS011;37825;40.088;18.302;2022-08-19T04:19:35;11.60;;;5.13;;
51746;SDS011;37825;40.088;18.302;2022-08-19T04:22:04;12.32;;;5.45;;
51746;SDS011;37825;40.088;18.302;2022-08-19T04:24:33;18.60;;;5.20;;
51746;SDS011;37825;40.088;18.302;2022-08-19T04:27:02;14.23;;;5.22;;
51746;SDS011;37825;40.088;18.302;2022-08-19T04:29:32;15.38;;;5.13;;
51746;SDS011;37825;40.088;18.302;2022-08-19T04:32:01;15.60;;;4.78;;
51746;SDS011;37825;40.088;18.302;2022-08-19T04:34:30;12.70;;;6.28;;
51746;SDS011;37825;40.088;18.302;2022-08-19T04:36:58;23.33;;;6.88;;
51746;SDS011;37825;40.088;18.302;2022-08-19T04:39:29;14.20;;;5.25;;
51746;SDS011;37825;40.088;18.302;2022-08-19T04:42:18;14.43;;;6.35;;
51746;SDS011;37825;40.088;18.302;2022-08-19T04:45:09;12.18;;;5.70;;
51746;SDS011;37825;40.088;18.302;2022-08-19T04:47:42;16.77;;;6.57;;
51746;SDS011;37825;40.088;18.302;2022-08-19T04:50:11;16.95;;;6.22;;
51746;SDS011;37825;40.088;18.302;2022-08-19T04:52:39;17.00;;;6.25;;
51746;SDS011;37825;40.088;18.302;2022-08-19T04:55:10;18.00;;;6.05;;
51746;SDS011;37825;40.088;18.302;2022-08-19T04:57:39;16.23;;;5.50;;
51746;SDS011;37825;40.088;18.302;2022-08-19T05:00:08;11.93;;;5.28;;
51746;SDS011;37825;40.088;18.302;2022-08-19T05:02:37;18.15;;;6.10;;
51746;SDS011;37825;40.088;18.302;2022-08-19T05:05:06;16.70;;;5.75;;
51746;SDS011;37825;40.088;18.302;2022-08-19T05:07:34;13.48;;;5.32;;
51746;SDS011;37825;40.088;18.302;2022-08-19T05:10:04;14.00;;;6.47;;
51746;SDS011;37825;40.088;18.302;2022-08-19T05:12:33;17.20;;;6.50;;
51746;SDS011;37825;40.088;18.302;2022-08-19T05:15:02;14.55;;;6.53;;
51746;SDS011;37825;40.088;18.302;2022-08-19T05:17:31;16.85;;;6.15;;
51746;SDS011;37825;40.088;18.302;2022-08-19T05:20:03;11.45;;;5.25;;
51746;SDS011;37825;40.088;18.302;2022-08-19T05:23:04;14.30;;;5.85;;
51746;SDS011;37825;40.088;18.302;2022-08-19T05:25:33;15.73;;;6.18;;
51746;SDS011;37825;40.088;18.302;2022-08-19T05:28:01;12.05;;;6.38;;
51746;SDS011;37825;40.088;18.302;2022-08-19T05:30:30;14.77;;;6.40;;
51746;SDS011;37825;40.088;18.302;2022-08-19T05:33:12;12.52;;;6.05;;
51746;SDS011;37825;40.088;18.302;2022-08-19T05:35:40;19.88;;;6.00;;
51746;SDS011;37825;40.088;18.302;2022-08-19T05:38:11;14.18;;;5.70;;
51746;SDS011;37825;40.088;18.302;2022-08-19T05:40:39;14.70;;;5.65;;
51746;SDS011;37825;40.088;18.302;2022-08-19T05:43:07;9.65;;;5.93;;
51746;SDS011;37825;40.088;18.302;2022-08-19T05:45:39;16.73;;;6.13;;
51746;SDS011;37825;40.088;18.302;2022-08-19T05:48:09;16.98;;;5.60;;
51746;SDS011;37825;40.088;18.302;2022-08-19T05:50:39;19.02;;;6.35;;
51746;SDS011;37825;40.088;18.302;2022-08-19T05:53:07;14.43;;;6.03;;
51746;SDS011;37825;40.088;18.302;2022-08-19T05:55:36;11.25;;;5.97;;
51746;SDS011;37825;40.088;18.302;2022-08-19T05:58:06;17.88;;;8.68;;
51746;SDS011;37825;40.088;18.302;2022-08-19T06:00:35;15.95;;;7.18;;
51746;SDS011;37825;40.088;18.302;2022-08-19T06:03:04;25.70;;;13.13;;
51746;SDS011;37825;40.088;18.302;2022-08-19T06:05:32;17.10;;;9.00;;
51746;SDS011;37825;40.088;18.302;2022-08-19T06:08:02;11.52;;;7.00;;
51746;SDS011;37825;40.088;18.302;2022-08-19T06:10:32;20.73;;;6.45;;
51746;SDS011;37825;40.088;18.302;2022-08-19T06:13:00;15.63;;;6.50;;
51746;SDS011;37825;40.088;18.302;2022-08-19T06:15:29;17.10;;;6.63;;
51746;SDS011;37825;40.088;18.302;2022-08-19T06:17:58;13.52;;;5.15;;
51746;SDS011;37825;40.088;18.302;2022-08-19T06:20:26;13.77;;;5.22;;
51746;SDS011;37825;40.088;18.302;2022-08-19T06:23:06;15.27;;;6.15;;
51746;SDS011;37825;40.088;18.302;2022-08-19T06:25:35;16.17;;;5.68;;
51746;SDS011;37825;40.088;18.302;2022-08-19T06:28:04;16.58;;;5.25;;
51746;SDS011;37825;40.088;18.302;2022-08-19T06:30:41;15.95;;;4.68;;
51746;SDS011;37825;40.088;18.302;2022-08-19T06:33:09;15.00;;;4.68;;
51746;SDS011;37825;40.088;18.302;2022-08-19T06:35:39;16.65;;;5.07;;
51746;SDS011;37825;40.088;18.302;2022-08-19T06:38:08;17.38;;;4.70;;
51746;SDS011;37825;40.088;18.302;2022-08-19T06:40:36;16.55;;;5.82;;
51746;SDS011;37825;40.088;18.302;2022-08-19T06:43:05;13.38;;;4.45;;
51746;SDS011;37825;40.088;18.302;2022-08-19T06:45:33;14.65;;;3.90;;
51746;SDS011;37825;40.088;18.302;2022-08-19T06:48:05;17.30;;;4.40;;
51746;SDS011;37825;40.088;18.302;2022-08-19T06:50:34;21.10;;;5.13;;
51746;SDS011;37825;40.088;18.302;2022-08-19T06:53:03;18.80;;;3.97;;
51746;SDS011;37825;40.088;18.302;2022-08-19T06:55:33;12.13;;;3.88;;
51746;SDS011;37825;40.088;18.302;2022-08-19T06:58:01;18.77;;;5.07;;
51746;SDS011;37825;40.088;18.302;2022-08-19T07:00:30;13.55;;;4.28;;
51746;SDS011;37825;40.088;18.302;2022-08-19T07:02:59;18.83;;;4.20;;
51746;SDS011;37825;40.088;18.302;2022-08-19T07:05:30;15.35;;;4.57;;
51746;SDS011;37825;40.088;18.302;2022-08-19T07:07:58;13.85;;;3.50;;
51746;SDS011;37825;40.088;18.302;2022-08-19T07:10:28;14.65;;;4.15;;
51746;SDS011;37825;40.088;18.302;2022-08-19T07:12:59;17.60;;;4.10;;
51746;SDS011;37825;40.088;18.302;2022-08-19T07:15:27;11.63;;;4.18;;
51746;SDS011;37825;40.088;18.302;2022-08-19T07:17:56;21.48;;;4.05;;
51746;SDS011;37825;40.088;18.302;2022-08-19T07:20:24;17.73;;;3.88;;
51746;SDS011;37825;40.088;18.302;2022-08-19T07:22:52;16.90;;;4.90;;
51746;SDS011;37825;40.088;18.302;2022-08-19T07:25:20;23.35;;;4.40;;
51746;SDS011;37825;40.088;18.302;2022-08-19T07:27:49;11.63;;;3.40;;
51746;SDS011;37825;40.088;18.302;2022-08-19T07:30:17;17.13;;;4.38;;
51746;SDS011;37825;40.088;18.302;2022-08-19T07:32:46;17.80;;;4.30;;
51746;SDS011;37825;40.088;18.302;2022-08-19T07:35:15;17.55;;;3.83;;
51746;SDS011;37825;40.088;18.302;2022-08-19T07:37:46;23.35;;;3.95;;
51746;SDS011;37825;40.088;18.302;2022-08-19T07:40:15;16.92;;;5.40;;
51746;SDS011;37825;40.088;18.302;2022-08-19T07:42:43;19.27;;;4.38;;
51746;SDS011;37825;40.088;18.302;2022-08-19T07:45:11;23.67;;;4.40;;
51746;SDS011;37825;40.088;18.302;2022-08-19T07:47:40;13.50;;;3.60;;
51746;SDS011;37825;40.088;18.302;2022-08-19T07:50:09;23.95;;;4.90;;
51746;SDS011;37825;40.088;18.302;2022-08-19T07:52:38;23.00;;;4.38;;
51746;SDS011;37825;40.088;18.302;2022-08-19T07:55:08;17.52;;;3.58;;
51746;SDS011;37825;40.088;18.302;2022-08-19T07:57:36;17.63;;;4.47;;
51746;SDS011;37825;40.088;18.302;2022-08-19T08:00:06;14.93;;;4.38;;
51746;SDS011;37825;40.088;18.302;2022-08-19T08:02:37;12.35;;;3.67;;
51746;SDS011;37825;40.088;18.302;2022-08-19T08:05:09;19.27;;;3.35;;
51746;SDS011;37825;40.088;18.302;2022-08-19T08:07:58;22.63;;;4.22;;
51746;SDS011;37825;40.088;18.302;2022-08-19T08:10:45;15.32;;;4.45;;
51746;SDS011;37825;40.088;18.302;2022-08-19T08:13:13;15.95;;;4.00;;
51746;SDS011;37825;40.088;18.302;2022-08-19T08:15:42;15.73;;;4.13;;
51746;SDS011;37825;40.088;18.302;2022-08-19T08:18:11;21.10;;;4.07;;
51746;SDS011;37825;40.088;18.302;2022-08-19T08:20:41;17.63;;;4.63;;
51746;SDS011;37825;40.088;18.302;2022-08-19T08:23:09;21.58;;;4.50;;
51746;SDS011;37825;40.088;18.302;2022-08-19T08:25:50;17.80;;;4.78;;
51746;SDS011;37825;40.088;18.302;2022-08-19T08:28:19;17.45;;;3.75;;
51746;SDS011;37825;40.088;18.302;2022-08-19T08:30:47;17.15;;;3.72;;
51746;SDS011;37825;40.088;18.302;2022-08-19T08:33:20;23.25;;;5.00;;
51746;SDS011;37825;40.088;18.302;2022-08-19T08:35:48;15.27;;;3.78;;
51746;SDS011;37825;40.088;18.302;2022-08-19T08:38:17;17.55;;;4.10;;
51746;SDS011;37825;40.088;18.302;2022-08-19T08:40:47;20.52;;;4.45;;
51746;SDS011;37825;40.088;18.302;2022-08-19T08:43:30;20.65;;;4.20;;
51746;SDS011;37825;40.088;18.302;2022-08-19T08:51:05;24.08;;;4.32;;
51746;SDS011;37825;40.088;18.302;2022-08-19T08:53:36;13.00;;;3.70;;
51746;SDS011;37825;40.088;18.302;2022-08-19T09:01:20;15.55;;;3.15;;
51746;SDS011;37825;40.088;18.302;2022-08-19T09:03:49;23.95;;;4.47;;
51746;SDS011;37825;40.088;18.302;2022-08-19T09:09:08;23.95;;;4.38;;
51746;SDS011;37825;40.088;18.302;2022-08-19T09:11:45;16.33;;;3.60;;
51746;SDS011;37825;40.088;18.302;2022-08-19T09:16:56;22.67;;;4.22;;
51746;SDS011;37825;40.088;18.302;2022-08-19T09:19:25;16.03;;;3.83;;
51746;SDS011;37825;40.088;18.302;2022-08-19T09:21:53;15.88;;;3.58;;
51746;SDS011;37825;40.088;18.302;2022-08-19T09:24:22;16.65;;;3.83;;
51746;SDS011;37825;40.088;18.302;2022-08-19T09:26:50;16.35;;;4.10;;
51746;SDS011;37825;40.088;18.302;2022-08-19T09:29:18;18.08;;;4.05;;
51746;SDS011;37825;40.088;18.302;2022-08-19T09:31:47;19.02;;;4.95;;
51746;SDS011;37825;40.088;18.302;2022-08-19T09:34:17;23.65;;;5.43;;
51746;SDS011;37825;40.088;18.302;2022-08-19T09:36:48;16.60;;;5.07;;
51746;SDS011;37825;40.088;18.302;2022-08-19T09:39:20;18.95;;;4.93;;
51746;SDS011;37825;40.088;18.302;2022-08-19T09:41:49;20.92;;;5.70;;
51746;SDS011;37825;40.088;18.302;2022-08-19T09:44:17;18.98;;;4.63;;
51746;SDS011;37825;40.088;18.302;2022-08-19T09:46:47;22.15;;;5.25;;
51746;SDS011;37825;40.088;18.302;2022-08-19T09:49:16;15.27;;;4.47;;
51746;SDS011;37825;40.088;18.302;2022-08-19T09:51:45;20.00;;;5.63;;
51746;SDS011;37825;40.088;18.302;2022-08-19T09:54:17;16.05;;;4.30;;
51746;SDS011;37825;40.088;18.302;2022-08-19T09:56:46;21.88;;;5.10;;
51746;SDS011;37825;40.088;18.302;2022-08-19T09:59:14;14.93;;;4.40;;
51746;SDS011;37825;40.088;18.302;2022-08-19T10:01:43;19.58;;;5.20;;
51746;SDS011;37825;40.088;18.302;2022-08-19T10:04:12;18.02;;;5.03;;
51746;SDS011;37825;40.088;18.302;2022-08-19T10:06:40;17.90;;;5.13;;
51746;SDS011;37825;40.088;18.302;2022-08-19T10:09:10;19.33;;;4.47;;
51746;SDS011;37825;40.088;18.302;2022-08-19T10:11:41;12.93;;;3.90;;
51746;SDS011;37825;40.088;18.302;2022-08-19T10:14:14;21.90;;;4.95;;
51746;SDS011;37825;40.088;18.302;2022-08-19T10:16:43;14.65;;;4.75;;
51746;SDS011;37825;40.088;18.302;2022-08-19T10:19:12;21.13;;;4.80;;
51746;SDS011;37825;40.088;18.302;2022-08-19T10:21:40;19.73;;;4.90;;
51746;SDS011;37825;40.088;18.302;2022-08-19T10:24:09;16.52;;;5.00;;
51746;SDS011;37825;40.088;18.302;2022-08-19T10:26:38;23.55;;;4.28;;
51746;SDS011;37825;40.088;18.302;2022-08-19T10:29:08;19.42;;;4.47;;
51746;SDS011;37825;40.088;18.302;2022-08-19T10:31:38;20.00;;;5.68;;
51746;SDS011;37825;40.088;18.302;2022-08-19T10:34:07;21.80;;;4.90;;
51746;SDS011;37825;40.088;18.302;2022-08-19T10:36:38;16.48;;;4.93;;
51746;SDS011;37825;40.088;18.302;2022-08-19T10:39:07;16.17;;;4.85;;
51746;SDS011;37825;40.088;18.302;2022-08-19T10:41:36;24.48;;;5.40;;
51746;SDS011;37825;40.088;18.302;2022-08-19T10:44:06;26.33;;;5.07;;
51746;SDS011;37825;40.088;18.302;2022-08-19T10:46:36;19.67;;;4.40;;
51746;SDS011;37825;40.088;18.302;2022-08-19T10:49:05;22.10;;;5.32;;
51746;SDS011;37825;40.088;18.302;2022-08-19T10:51:33;17.17;;;4.55;;
51746;SDS011;37825;40.088;18.302;2022-08-19T10:54:21;16.90;;;5.10;;
51746;SDS011;37825;40.088;18.302;2022-08-19T10:56:49;16.27;;;4.40;;
51746;SDS011;37825;40.088;18.302;2022-08-19T10:59:22;22.90;;;5.63;;
51746;SDS011;37825;40.088;18.302;2022-08-19T11:01:51;22.48;;;4.68;;
51746;SDS011;37825;40.088;18.302;2022-08-19T11:04:20;17.98;;;4.53;;
51746;SDS011;37825;40.088;18.302;2022-08-19T11:06:50;24.50;;;4.65;;
51746;SDS011;37825;40.088;18.302;2022-08-19T11:09:23;24.73;;;5.93;;
51746;SDS011;37825;40.088;18.302;2022-08-19T11:11:56;21.55;;;4.90;;
51746;SDS011;37825;40.088;18.302;2022-08-19T11:14:24;20.15;;;5.10;;
51746;SDS011;37825;40.088;18.302;2022-08-19T11:16:53;21.00;;;5.28;;
51746;SDS011;37825;40.088;18.302;2022-08-19T11:21:51;22.00;;;4.20;;
51746;SDS011;37825;40.088;18.302;2022-08-19T11:24:22;29.00;;;5.00;;
51746;SDS011;37825;40.088;18.302;2022-08-19T11:26:51;17.35;;;4.45;;
51746;SDS011;37825;40.088;18.302;2022-08-19T11:29:20;18.70;;;4.68;;
51746;SDS011;37825;40.088;18.302;2022-08-19T11:31:50;17.38;;;5.38;;
51746;SDS011;37825;40.088;18.302;2022-08-19T11:34:20;23.98;;;4.63;;
51746;SDS011;37825;40.088;18.302;2022-08-19T11:36:49;18.00;;;4.93;;
51746;SDS011;37825;40.088;18.302;2022-08-19T11:39:19;23.80;;;4.60;;
51746;SDS011;37825;40.088;18.302;2022-08-19T11:41:48;22.02;;;4.43;;
51746;SDS011;37825;40.088;18.302;2022-08-19T11:44:16;18.50;;;4.35;;
51746;SDS011;37825;40.088;18.302;2022-08-19T11:46:45;24.17;;;5.07;;
51746;SDS011;37825;40.088;18.302;2022-08-19T11:49:14;21.40;;;5.50;;
51746;SDS011;37825;40.088;18.302;2022-08-19T11:51:43;20.85;;;4.75;;
51746;SDS011;37825;40.088;18.302;2022-08-19T11:54:11;16.05;;;4.60;;
51746;SDS011;37825;40.088;18.302;2022-08-19T11:56:41;23.80;;;5.22;;
51746;SDS011;37825;40.088;18.302;2022-08-19T11:59:09;19.30;;;5.40;;
51746;SDS011;37825;40.088;18.302;2022-08-19T12:01:41;24.13;;;4.80;;
51746;SDS011;37825;40.088;18.302;2022-08-19T12:04:10;17.92;;;4.78;;
51746;SDS011;37825;40.088;18.302;2022-08-19T12:06:40;23.73;;;5.05;;
51746;SDS011;37825;40.088;18.302;2022-08-19T12:09:09;18.85;;;3.95;;
51746;SDS011;37825;40.088;18.302;2022-08-19T12:11:38;31.33;;;5.65;;
51746;SDS011;37825;40.088;18.302;2022-08-19T12:14:11;20.92;;;5.00;;
51746;SDS011;37825;40.088;18.302;2022-08-19T12:16:41;25.27;;;5.03;;
51746;SDS011;37825;40.088;18.302;2022-08-19T12:19:09;21.75;;;5.93;;
51746;SDS011;37825;40.088;18.302;2022-08-19T12:21:37;18.63;;;4.80;;
51746;SDS011;37825;40.088;18.302;2022-08-19T12:24:06;23.03;;;5.63;;
51746;SDS011;37825;40.088;18.302;2022-08-19T12:26:35;23.83;;;5.28;;
51746;SDS011;37825;40.088;18.302;2022-08-19T12:29:04;22.23;;;5.18;;
51746;SDS011;37825;40.088;18.302;2022-08-19T12:31:33;23.77;;;5.13;;
51746;SDS011;37825;40.088;18.302;2022-08-19T12:34:01;17.85;;;4.38;;
51746;SDS011;37825;40.088;18.302;2022-08-19T12:36:29;23.35;;;5.63;;
51746;SDS011;37825;40.088;18.302;2022-08-19T12:38:58;19.10;;;5.30;;
51746;SDS011;37825;40.088;18.302;2022-08-19T12:41:27;22.67;;;6.07;;
51746;SDS011;37825;40.088;18.302;2022-08-19T12:43:55;22.15;;;5.20;;
51746;SDS011;37825;40.088;18.302;2022-08-19T12:46:25;20.50;;;5.22;;
51746;SDS011;37825;40.088;18.302;2022-08-19T12:48:53;24.55;;;5.45;;
51746;SDS011;37825;40.088;18.302;2022-08-19T12:51:23;22.55;;;5.28;;
51746;SDS011;37825;40.088;18.302;2022-08-19T12:53:52;26.23;;;5.03;;
51746;SDS011;37825;40.088;18.302;2022-08-19T12:56:21;24.40;;;5.17;;
51746;SDS011;37825;40.088;18.302;2022-08-19T12:58:49;28.83;;;6.82;;
51746;SDS011;37825;40.088;18.302;2022-08-19T13:01:18;20.17;;;5.38;;
51746;SDS011;37825;40.088;18.302;2022-08-19T13:03:47;25.10;;;6.82;;
51746;SDS011;37825;40.088;18.302;2022-08-19T13:06:15;25.38;;;6.80;;
51746;SDS011;37825;40.088;18.302;2022-08-19T13:08:45;20.90;;;5.38;;
51746;SDS011;37825;40.088;18.302;2022-08-19T13:11:14;37.40;;;6.05;;
51746;SDS011;37825;40.088;18.302;2022-08-19T13:13:45;21.27;;;5.30;;
51746;SDS011;37825;40.088;18.302;2022-08-19T13:16:14;30.75;;;7.00;;
51746;SDS011;37825;40.088;18.302;2022-08-19T13:18:44;23.33;;;6.30;;
51746;SDS011;37825;40.088;18.302;2022-08-19T13:21:19;22.90;;;6.32;;
51746;SDS011;37825;40.088;18.302;2022-08-19T13:23:48;19.63;;;4.95;;
51746;SDS011;37825;40.088;18.302;2022-08-19T13:26:17;27.58;;;5.57;;
51746;SDS011;37825;40.088;18.302;2022-08-19T13:28:45;29.85;;;5.65;;
51746;SDS011;37825;40.088;18.302;2022-08-19T13:31:33;22.48;;;6.20;;
51746;SDS011;37825;40.088;18.302;2022-08-19T13:34:30;31.95;;;6.93;;
51746;SDS011;37825;40.088;18.302;2022-08-19T13:37:00;21.40;;;5.85;;
51746;SDS011;37825;40.088;18.302;2022-08-19T13:39:32;25.98;;;5.68;;
51746;SDS011;37825;40.088;18.302;2022-08-19T13:42:02;26.15;;;5.85;;
51746;SDS011;37825;40.088;18.302;2022-08-19T13:44:31;22.17;;;5.85;;
51746;SDS011;37825;40.088;18.302;2022-08-19T13:47:03;19.80;;;5.10;;
51746;SDS011;37825;40.088;18.302;2022-08-19T13:49:34;20.98;;;6.65;;
51746;SDS011;37825;40.088;18.302;2022-08-19T13:52:04;21.58;;;5.32;;
51746;SDS011;37825;40.088;18.302;2022-08-19T13:54:34;22.25;;;5.65;;
51746;SDS011;37825;40.088;18.302;2022-08-19T13:57:02;23.30;;;6.10;;
51746;SDS011;37825;40.088;18.302;2022-08-19T13:59:30;30.02;;;6.63;;
51746;SDS011;37825;40.088;18.302;2022-08-19T14:02:00;24.40;;;5.95;;
51746;SDS011;37825;40.088;18.302;2022-08-19T14:04:29;25.63;;;6.00;;
51746;SDS011;37825;40.088;18.302;2022-08-19T14:06:57;25.98;;;6.00;;
51746;SDS011;37825;40.088;18.302;2022-08-19T14:09:25;21.08;;;5.53;;
51746;SDS011;37825;40.088;18.302;2022-08-19T14:11:53;23.98;;;5.22;;
51746;SDS011;37825;40.088;18.302;2022-08-19T14:14:22;23.75;;;6.13;;
51746;SDS011;37825;40.088;18.302;2022-08-19T14:16:51;22.35;;;5.85;;
51746;SDS011;37825;40.088;18.302;2022-08-19T14:19:19;22.80;;;6.43;;
51746;SDS011;37825;40.088;18.302;2022-08-19T14:21:48;23.75;;;5.47;;
51746;SDS011;37825;40.088;18.302;2022-08-19T14:24:16;28.85;;;6.00;;
51746;SDS011;37825;40.088;18.302;2022-08-19T14:26:44;20.67;;;5.78;;
51746;SDS011;37825;40.088;18.302;2022-08-19T14:29:13;17.33;;;6.15;;
51746;SDS011;37825;40.088;18.302;2022-08-19T14:31:41;21.95;;;6.00;;
51746;SDS011;37825;40.088;18.302;2022-08-19T14:34:10;23.73;;;4.70;;
51746;SDS011;37825;40.088;18.302;2022-08-19T14:36:40;20.05;;;4.72;;
51746;SDS011;37825;40.088;18.302;2022-08-19T14:39:08;16.60;;;4.72;;
51746;SDS011;37825;40.088;18.302;2022-08-19T14:41:39;20.80;;;5.47;;
51746;SDS011;37825;40.088;18.302;2022-08-19T14:44:07;20.15;;;5.40;;
51746;SDS011;37825;40.088;18.302;2022-08-19T14:46:39;20.27;;;5.20;;
51746;SDS011;37825;40.088;18.302;2022-08-19T14:49:08;17.08;;;5.05;;
51746;SDS011;37825;40.088;18.302;2022-08-19T14:51:36;14.75;;;5.25;;
51746;SDS011;37825;40.088;18.302;2022-08-19T14:54:04;20.05;;;5.68;;
51746;SDS011;37825;40.088;18.302;2022-08-19T14:56:33;15.38;;;5.28;;